sensor_id;sensor_type;location;lat;lon;timestamp;pressure;altitude;pressure_sealevel;temperature
58909;BMP280;44690;48.154;17.102;2023-03-01T00:00:38;100577.13;;;-1.14
58909;BMP280;44690;48.154;17.102;2023-03-01T00:02:10;100573.59;;;-1.11
58909;BMP280;44690;48.154;17.102;2023-03-01T00:03:43;100568.69;;;-1.13
58909;BMP280;44690;48.154;17.102;2023-03-01T00:05:16;100576.81;;;-1.07
58909;BMP280;44690;48.154;17.102;2023-03-01T00:06:50;100573.72;;;-1.06
58909;BMP280;44690;48.154;17.102;2023-03-01T00:08:31;100565.41;;;-0.98
58909;BMP280;44690;48.154;17.102;2023-03-01T00:10:23;100568.66;;;-0.85
58909;BMP280;44690;48.154;17.102;2023-03-01T00:11:55;100565.50;;;-0.75
58909;BMP280;44690;48.154;17.102;2023-03-01T00:13:30;100560.88;;;-0.65
58909;BMP280;44690;48.154;17.102;2023-03-01T00:15:03;100568.38;;;-0.54
58909;BMP280;44690;48.154;17.102;2023-03-01T00:16:39;100564.94;;;-0.45
58909;BMP280;44690;48.154;17.102;2023-03-01T00:18:12;100569.50;;;-0.37
58909;BMP280;44690;48.154;17.102;2023-03-01T00:19:44;100571.69;;;-0.26
58909;BMP280;44690;48.154;17.102;2023-03-01T00:21:17;100573.56;;;-0.17
58909;BMP280;44690;48.154;17.102;2023-03-01T00:22:50;100577.94;;;-0.05
58909;BMP280;44690;48.154;17.102;2023-03-01T00:24:22;100585.31;;;0.09
58909;BMP280;44690;48.154;17.102;2023-03-01T00:25:54;100577.50;;;0.20
58909;BMP280;44690;48.154;17.102;2023-03-01T00:27:27;100583.06;;;0.32
58909;BMP280;44690;48.154;17.102;2023-03-01T00:28:59;100581.50;;;0.40
58909;BMP280;44690;48.154;17.102;2023-03-01T00:30:36;100585.88;;;0.52
58909;BMP280;44690;48.154;17.102;2023-03-01T00:32:10;100579.53;;;0.64
58909;BMP280;44690;48.154;17.102;2023-03-01T00:33:43;100584.81;;;0.73
58909;BMP280;44690;48.154;17.102;2023-03-01T00:35:15;100582.03;;;0.83
58909;BMP280;44690;48.154;17.102;2023-03-01T00:36:47;100591.00;;;0.94
58909;BMP280;44690;48.154;17.102;2023-03-01T00:38:22;100581.41;;;1.02
58909;BMP280;44690;48.154;17.102;2023-03-01T00:39:57;100586.94;;;1.14
58909;BMP280;44690;48.154;17.102;2023-03-01T00:41:30;100577.06;;;1.20
58909;BMP280;44690;48.154;17.102;2023-03-01T00:43:03;100586.94;;;1.29
58909;BMP280;44690;48.154;17.102;2023-03-01T00:44:43;100579.69;;;1.35
58909;BMP280;44690;48.154;17.102;2023-03-01T00:46:25;100584.69;;;1.42
58909;BMP280;44690;48.154;17.102;2023-03-01T00:48:01;100574.78;;;1.48
58909;BMP280;44690;48.154;17.102;2023-03-01T00:49:34;100573.88;;;1.51
58909;BMP280;44690;48.154;17.102;2023-03-01T00:51:10;100575.88;;;1.56
58909;BMP280;44690;48.154;17.102;2023-03-01T00:52:43;100581.31;;;1.62
58909;BMP280;44690;48.154;17.102;2023-03-01T00:54:18;100576.25;;;1.64
58909;BMP280;44690;48.154;17.102;2023-03-01T00:55:51;100576.06;;;1.67
58909;BMP280;44690;48.154;17.102;2023-03-01T00:57:24;100579.72;;;1.70
58909;BMP280;44690;48.154;17.102;2023-03-01T00:58:57;100573.63;;;1.69
58909;BMP280;44690;48.154;17.102;2023-03-01T01:00:31;100574.25;;;1.79
58909;BMP280;44690;48.154;17.102;2023-03-01T01:02:03;100575.75;;;1.80
58909;BMP280;44690;48.154;17.102;2023-03-01T01:03:36;100570.69;;;1.88
58909;BMP280;44690;48.154;17.102;2023-03-01T01:05:08;100571.72;;;1.90
58909;BMP280;44690;48.154;17.102;2023-03-01T01:06:43;100570.78;;;1.93
58909;BMP280;44690;48.154;17.102;2023-03-01T01:08:20;100565.00;;;2.00
58909;BMP280;44690;48.154;17.102;2023-03-01T01:09:54;100566.28;;;2.05
58909;BMP280;44690;48.154;17.102;2023-03-01T01:11:29;100577.53;;;2.09
58909;BMP280;44690;48.154;17.102;2023-03-01T01:13:02;100566.44;;;2.16
58909;BMP280;44690;48.154;17.102;2023-03-01T01:14:35;100573.06;;;2.21
58909;BMP280;44690;48.154;17.102;2023-03-01T01:16:08;100564.34;;;2.26
58909;BMP280;44690;48.154;17.102;2023-03-01T01:17:41;100561.94;;;2.28
58909;BMP280;44690;48.154;17.102;2023-03-01T01:19:14;100560.75;;;2.35
58909;BMP280;44690;48.154;17.102;2023-03-01T01:20:47;100549.59;;;2.36
58909;BMP280;44690;48.154;17.102;2023-03-01T01:22:20;100563.28;;;2.44
58909;BMP280;44690;48.154;17.102;2023-03-01T01:23:53;100557.00;;;2.47
58909;BMP280;44690;48.154;17.102;2023-03-01T01:25:26;100548.97;;;2.47
58909;BMP280;44690;48.154;17.102;2023-03-01T01:26:58;100556.78;;;2.50
58909;BMP280;44690;48.154;17.102;2023-03-01T01:28:31;100547.09;;;2.53
58909;BMP280;44690;48.154;17.102;2023-03-01T01:30:04;100545.59;;;2.52
58909;BMP280;44690;48.154;17.102;2023-03-01T01:31:37;100549.50;;;2.51
58909;BMP280;44690;48.154;17.102;2023-03-01T01:33:13;100551.69;;;2.52
58909;BMP280;44690;48.154;17.102;2023-03-01T01:34:46;100544.19;;;2.57
58909;BMP280;44690;48.154;17.102;2023-03-01T01:36:19;100542.72;;;2.55
58909;BMP280;44690;48.154;17.102;2023-03-01T01:37:51;100546.41;;;2.58
58909;BMP280;44690;48.154;17.102;2023-03-01T01:39:23;100542.03;;;2.61
58909;BMP280;44690;48.154;17.102;2023-03-01T01:40:55;100537.44;;;2.61
58909;BMP280;44690;48.154;17.102;2023-03-01T01:42:27;100540.38;;;2.63
58909;BMP280;44690;48.154;17.102;2023-03-01T01:44:24;100534.53;;;2.65
58909;BMP280;44690;48.154;17.102;2023-03-01T01:46:00;100519.88;;;2.60
58909;BMP280;44690;48.154;17.102;2023-03-01T01:47:33;100528.69;;;2.66
58909;BMP280;44690;48.154;17.102;2023-03-01T01:49:14;100535.75;;;2.69
58909;BMP280;44690;48.154;17.102;2023-03-01T01:50:57;100520.16;;;2.68
58909;BMP280;44690;48.154;17.102;2023-03-01T01:52:35;100527.19;;;2.65
58909;BMP280;44690;48.154;17.102;2023-03-01T01:54:20;100524.50;;;2.65
58909;BMP280;44690;48.154;17.102;2023-03-01T01:55:58;100526.53;;;2.70
58909;BMP280;44690;48.154;17.102;2023-03-01T01:57:37;100522.88;;;2.73
58909;BMP280;44690;48.154;17.102;2023-03-01T01:59:11;100529.72;;;2.74
58909;BMP280;44690;48.154;17.102;2023-03-01T02:00:44;100520.88;;;2.68
58909;BMP280;44690;48.154;17.102;2023-03-01T02:02:16;100525.31;;;2.71
58909;BMP280;44690;48.154;17.102;2023-03-01T02:03:48;100524.28;;;2.69
58909;BMP280;44690;48.154;17.102;2023-03-01T02:05:29;100528.19;;;2.68
58909;BMP280;44690;48.154;17.102;2023-03-01T02:07:14;100524.06;;;2.67
58909;BMP280;44690;48.154;17.102;2023-03-01T02:08:47;100525.78;;;2.70
58909;BMP280;44690;48.154;17.102;2023-03-01T02:10:21;100524.50;;;2.65
58909;BMP280;44690;48.154;17.102;2023-03-01T02:11:54;100521.81;;;2.65
58909;BMP280;44690;48.154;17.102;2023-03-01T02:13:27;100512.56;;;2.61
58909;BMP280;44690;48.154;17.102;2023-03-01T02:15:00;100511.38;;;2.62
58909;BMP280;44690;48.154;17.102;2023-03-01T02:17:01;100517.91;;;2.61
58909;BMP280;44690;48.154;17.102;2023-03-01T02:18:33;100512.31;;;2.59
58909;BMP280;44690;48.154;17.102;2023-03-01T02:21:52;100508.63;;;2.56
58909;BMP280;44690;48.154;17.102;2023-03-01T02:23:27;100515.19;;;2.55
58909;BMP280;44690;48.154;17.102;2023-03-01T02:26:56;100511.81;;;2.60
58909;BMP280;44690;48.154;17.102;2023-03-01T02:28:40;100507.19;;;2.61
58909;BMP280;44690;48.154;17.102;2023-03-01T02:30:12;100513.03;;;2.59
58909;BMP280;44690;48.154;17.102;2023-03-01T02:31:45;100514.50;;;2.60
58909;BMP280;44690;48.154;17.102;2023-03-01T02:33:17;100505.50;;;2.58
58909;BMP280;44690;48.154;17.102;2023-03-01T02:34:49;100497.38;;;2.52
58909;BMP280;44690;48.154;17.102;2023-03-01T02:36:25;100504.28;;;2.59
58909;BMP280;44690;48.154;17.102;2023-03-01T02:38:00;100515.72;;;2.59
58909;BMP280;44690;48.154;17.102;2023-03-01T02:39:39;100506.22;;;2.58
58909;BMP280;44690;48.154;17.102;2023-03-01T02:41:16;100506.00;;;2.62
58909;BMP280;44690;48.154;17.102;2023-03-01T02:42:54;100505.50;;;2.58
58909;BMP280;44690;48.154;17.102;2023-03-01T02:44:27;100512.78;;;2.57
58909;BMP280;44690;48.154;17.102;2023-03-01T02:46:20;100501.31;;;2.57
58909;BMP280;44690;48.154;17.102;2023-03-01T02:47:56;100509.88;;;2.61
58909;BMP280;44690;48.154;17.102;2023-03-01T02:49:33;100499.91;;;2.61
58909;BMP280;44690;48.154;17.102;2023-03-01T02:56:29;100503.84;;;2.66
58909;BMP280;44690;48.154;17.102;2023-03-01T02:58:03;100502.84;;;2.63
58909;BMP280;44690;48.154;17.102;2023-03-01T02:59:38;100508.22;;;2.63
58909;BMP280;44690;48.154;17.102;2023-03-01T03:01:13;100502.13;;;2.63
58909;BMP280;44690;48.154;17.102;2023-03-01T03:02:51;100497.00;;;2.65
58909;BMP280;44690;48.154;17.102;2023-03-01T03:04:26;100499.69;;;2.65
58909;BMP280;44690;48.154;17.102;2023-03-01T03:06:31;100507.97;;;2.67
58909;BMP280;44690;48.154;17.102;2023-03-01T03:08:03;100509.19;;;2.66
58909;BMP280;44690;48.154;17.102;2023-03-01T03:09:57;100507.97;;;2.67
58909;BMP280;44690;48.154;17.102;2023-03-01T03:11:30;100506.50;;;2.66
58909;BMP280;44690;48.154;17.102;2023-03-01T03:13:07;100503.59;;;2.64
58909;BMP280;44690;48.154;17.102;2023-03-01T03:14:39;100502.63;;;2.67
58909;BMP280;44690;48.154;17.102;2023-03-01T03:16:12;100497.00;;;2.65
58909;BMP280;44690;48.154;17.102;2023-03-01T03:17:44;100498.22;;;2.69
58909;BMP280;44690;48.154;17.102;2023-03-01T03:19:19;100503.88;;;2.71
58909;BMP280;44690;48.154;17.102;2023-03-01T03:20:52;100489.94;;;2.67
58909;BMP280;44690;48.154;17.102;2023-03-01T03:22:25;100497.03;;;2.70
58909;BMP280;44690;48.154;17.102;2023-03-01T03:23:59;100490.19;;;2.69
58909;BMP280;44690;48.154;17.102;2023-03-01T03:25:31;100490.19;;;2.69
58909;BMP280;44690;48.154;17.102;2023-03-01T03:27:05;100497.28;;;2.72
58909;BMP280;44690;48.154;17.102;2023-03-01T03:28:37;100496.81;;;2.74
58909;BMP280;44690;48.154;17.102;2023-03-01T03:30:17;100493.41;;;2.73
58909;BMP280;44690;48.154;17.102;2023-03-01T03:31:50;100493.88;;;2.72
58909;BMP280;44690;48.154;17.102;2023-03-01T03:33:22;100492.94;;;2.75
58909;BMP280;44690;48.154;17.102;2023-03-01T03:34:54;100489.53;;;2.74
58909;BMP280;44690;48.154;17.102;2023-03-01T03:36:27;100484.16;;;2.74
58909;BMP280;44690;48.154;17.102;2023-03-01T03:38:01;100482.69;;;2.73
58909;BMP280;44690;48.154;17.102;2023-03-01T03:39:35;100475.84;;;2.72
58909;BMP280;44690;48.154;17.102;2023-03-01T03:41:07;100479.25;;;2.73
58909;BMP280;44690;48.154;17.102;2023-03-01T03:42:40;100482.94;;;2.75
58909;BMP280;44690;48.154;17.102;2023-03-01T03:44:19;100482.94;;;2.75
58909;BMP280;44690;48.154;17.102;2023-03-01T03:46:26;100480.28;;;2.75
58909;BMP280;44690;48.154;17.102;2023-03-01T03:48:00;100486.84;;;2.74
58909;BMP280;44690;48.154;17.102;2023-03-01T03:49:33;100481.50;;;2.74
58909;BMP280;44690;48.154;17.102;2023-03-01T03:51:05;100479.53;;;2.75
58909;BMP280;44690;48.154;17.102;2023-03-01T03:52:38;100474.63;;;2.73
58909;BMP280;44690;48.154;17.102;2023-03-01T03:54:10;100475.66;;;2.76
58909;BMP280;44690;48.154;17.102;2023-03-01T03:55:42;100474.91;;;2.75
58909;BMP280;44690;48.154;17.102;2023-03-01T03:57:16;100475.16;;;2.77
58909;BMP280;44690;48.154;17.102;2023-03-01T03:58:48;100480.53;;;2.77
58909;BMP280;44690;48.154;17.102;2023-03-01T04:00:21;100482.75;;;2.79
58909;BMP280;44690;48.154;17.102;2023-03-01T04:02:31;100473.97;;;2.78
58909;BMP280;44690;48.154;17.102;2023-03-01T04:04:16;100472.97;;;2.76
58909;BMP280;44690;48.154;17.102;2023-03-01T04:05:52;100477.63;;;2.81
58909;BMP280;44690;48.154;17.102;2023-03-01T04:07:49;100476.91;;;2.80
58909;BMP280;44690;48.154;17.102;2023-03-01T04:09:32;100474.94;;;2.81
58909;BMP280;44690;48.154;17.102;2023-03-01T04:11:05;100481.03;;;2.81
58909;BMP280;44690;48.154;17.102;2023-03-01T04:12:56;100471.81;;;2.83
58909;BMP280;44690;48.154;17.102;2023-03-01T04:14:29;100463.25;;;2.78
58909;BMP280;44690;48.154;17.102;2023-03-01T04:16:01;100467.19;;;2.83
58909;BMP280;44690;48.154;17.102;2023-03-01T04:17:51;100471.81;;;2.83
58909;BMP280;44690;48.154;17.102;2023-03-01T04:19:35;100470.09;;;2.85
58909;BMP280;44690;48.154;17.102;2023-03-01T04:21:24;100466.69;;;2.85
58909;BMP280;44690;48.154;17.102;2023-03-01T04:23:26;100466.69;;;2.85
58909;BMP280;44690;48.154;17.102;2023-03-01T04:26:03;100472.06;;;2.85
58909;BMP280;44690;48.154;17.102;2023-03-01T04:27:36;100480.09;;;2.85
58909;BMP280;44690;48.154;17.102;2023-03-01T04:29:08;100481.56;;;2.86
58909;BMP280;44690;48.154;17.102;2023-03-01T04:30:40;100473.06;;;2.87
58909;BMP280;44690;48.154;17.102;2023-03-01T04:32:13;100477.94;;;2.89
58909;BMP280;44690;48.154;17.102;2023-03-01T04:34:00;100466.47;;;2.88
58909;BMP280;44690;48.154;17.102;2023-03-01T04:35:32;100465.47;;;2.86
58909;BMP280;44690;48.154;17.102;2023-03-01T04:37:05;100468.69;;;2.90
58909;BMP280;44690;48.154;17.102;2023-03-01T04:38:38;100467.69;;;2.87
58909;BMP280;44690;48.154;17.102;2023-03-01T04:40:10;100471.34;;;2.90
58909;BMP280;44690;48.154;17.102;2023-03-01T04:41:48;100474.56;;;2.94
58909;BMP280;44690;48.154;17.102;2023-03-01T04:43:20;100466.50;;;2.94
58909;BMP280;44690;48.154;17.102;2023-03-01T04:44:52;100471.88;;;2.94
58909;BMP280;44690;48.154;17.102;2023-03-01T04:46:24;100466.50;;;2.94
58909;BMP280;44690;48.154;17.102;2023-03-01T04:47:57;100471.63;;;2.97
58909;BMP280;44690;48.154;17.102;2023-03-01T04:49:30;100470.91;;;2.97
58909;BMP280;44690;48.154;17.102;2023-03-01T04:51:03;100471.38;;;2.95
58909;BMP280;44690;48.154;17.102;2023-03-01T04:52:36;100473.34;;;2.95
58909;BMP280;44690;48.154;17.102;2023-03-01T04:54:08;100472.84;;;2.96
58909;BMP280;44690;48.154;17.102;2023-03-01T04:55:42;100473.59;;;2.97
58909;BMP280;44690;48.154;17.102;2023-03-01T04:57:14;100475.78;;;2.98
58909;BMP280;44690;48.154;17.102;2023-03-01T04:58:46;100480.19;;;3.01
58909;BMP280;44690;48.154;17.102;2023-03-01T05:00:19;100477.25;;;2.99
58909;BMP280;44690;48.154;17.102;2023-03-01T05:02:03;100482.88;;;3.01
58909;BMP280;44690;48.154;17.102;2023-03-01T05:03:35;100488.25;;;3.01
58909;BMP280;44690;48.154;17.102;2023-03-01T05:05:07;100488.47;;;3.03
58909;BMP280;44690;48.154;17.102;2023-03-01T05:06:40;100487.28;;;3.04
58909;BMP280;44690;48.154;17.102;2023-03-01T05:08:13;100478.97;;;3.02
58909;BMP280;44690;48.154;17.102;2023-03-01T05:09:49;100479.25;;;3.04
58909;BMP280;44690;48.154;17.102;2023-03-01T05:11:21;100470.19;;;3.02
58909;BMP280;44690;48.154;17.102;2023-03-01T05:12:53;100476.56;;;3.04
58909;BMP280;44690;48.154;17.102;2023-03-01T05:14:25;100476.56;;;3.04
58909;BMP280;44690;48.154;17.102;2023-03-01T05:16:01;100479.97;;;3.05
58909;BMP280;44690;48.154;17.102;2023-03-01T05:17:34;100472.63;;;3.00
58909;BMP280;44690;48.154;17.102;2023-03-01T05:19:06;100468.03;;;3.06
58909;BMP280;44690;48.154;17.102;2023-03-01T05:21:14;100476.56;;;3.04
58909;BMP280;44690;48.154;17.102;2023-03-01T05:22:50;100465.34;;;3.06
58909;BMP280;44690;48.154;17.102;2023-03-01T05:24:23;100468.03;;;3.06
58909;BMP280;44690;48.154;17.102;2023-03-01T05:25:58;100467.03;;;3.03
58909;BMP280;44690;48.154;17.102;2023-03-01T05:27:31;100466.34;;;3.09
58909;BMP280;44690;48.154;17.102;2023-03-01T05:29:03;100467.81;;;3.10
58909;BMP280;44690;48.154;17.102;2023-03-01T05:30:35;100463.16;;;3.04
58909;BMP280;44690;48.154;17.102;2023-03-01T05:32:07;100468.78;;;3.12
58909;BMP280;44690;48.154;17.102;2023-03-01T05:33:40;100470.00;;;3.11
58909;BMP280;44690;48.154;17.102;2023-03-01T05:35:15;100467.59;;;3.13
58909;BMP280;44690;48.154;17.102;2023-03-01T05:36:47;100473.94;;;3.16
58909;BMP280;44690;48.154;17.102;2023-03-01T05:38:20;100476.16;;;3.17
58909;BMP280;44690;48.154;17.102;2023-03-01T05:40:04;100470.03;;;3.17
58909;BMP280;44690;48.154;17.102;2023-03-01T05:41:37;100480.34;;;3.24
58909;BMP280;44690;48.154;17.102;2023-03-01T05:43:09;100479.34;;;3.27
58909;BMP280;44690;48.154;17.102;2023-03-01T05:44:42;100485.69;;;3.29
58909;BMP280;44690;48.154;17.102;2023-03-01T05:46:14;100478.41;;;3.30
58909;BMP280;44690;48.154;17.102;2023-03-01T05:47:48;100484.75;;;3.32
58909;BMP280;44690;48.154;17.102;2023-03-01T05:49:21;100480.84;;;3.33
58909;BMP280;44690;48.154;17.102;2023-03-01T05:50:59;100485.25;;;3.37
58909;BMP280;44690;48.154;17.102;2023-03-01T05:53:01;100491.63;;;3.39
58909;BMP280;44690;48.154;17.102;2023-03-01T05:54:51;100494.09;;;3.43
58909;BMP280;44690;48.154;17.102;2023-03-01T05:56:23;100494.09;;;3.43
58909;BMP280;44690;48.154;17.102;2023-03-01T05:57:58;100495.78;;;3.40
58909;BMP280;44690;48.154;17.102;2023-03-01T05:59:30;100492.59;;;3.42
58909;BMP280;44690;48.154;17.102;2023-03-01T06:01:03;100506.06;;;3.47
58909;BMP280;44690;48.154;17.102;2023-03-01T06:02:35;100496.78;;;3.48
58909;BMP280;44690;48.154;17.102;2023-03-01T06:04:07;100499.69;;;3.50
58909;BMP280;44690;48.154;17.102;2023-03-01T06:05:40;100493.63;;;3.50
58909;BMP280;44690;48.154;17.102;2023-03-01T06:07:13;100498.00;;;3.53
58909;BMP280;44690;48.154;17.102;2023-03-01T06:08:45;100500.69;;;3.53
58909;BMP280;44690;48.154;17.102;2023-03-01T06:10:18;100509.25;;;3.57
58909;BMP280;44690;48.154;17.102;2023-03-01T06:11:51;100503.41;;;3.58
58909;BMP280;44690;48.154;17.102;2023-03-01T06:13:24;100508.31;;;3.60
58909;BMP280;44690;48.154;17.102;2023-03-01T06:14:56;100519.28;;;3.62
58909;BMP280;44690;48.154;17.102;2023-03-01T06:16:28;100501.97;;;3.63
58909;BMP280;44690;48.154;17.102;2023-03-01T06:18:01;100509.56;;;3.70
58909;BMP280;44690;48.154;17.102;2023-03-01T06:19:33;100504.69;;;3.74
58909;BMP280;44690;48.154;17.102;2023-03-01T06:21:21;100500.06;;;3.80
58909;BMP280;44690;48.154;17.102;2023-03-01T06:22:54;100504.47;;;3.89
58909;BMP280;44690;48.154;17.102;2023-03-01T06:24:26;100507.91;;;3.90
58909;BMP280;44690;48.154;17.102;2023-03-01T06:26:05;100503.28;;;3.96
58909;BMP280;44690;48.154;17.102;2023-03-01T06:27:37;100508.66;;;3.96
58909;BMP280;44690;48.154;17.102;2023-03-01T06:29:10;100509.88;;;4.00
58909;BMP280;44690;48.154;17.102;2023-03-01T06:30:42;100516.25;;;4.03
58909;BMP280;44690;48.154;17.102;2023-03-01T06:32:14;100519.44;;;4.07
58909;BMP280;44690;48.154;17.102;2023-03-01T06:33:47;100512.34;;;4.09
58909;BMP280;44690;48.154;17.102;2023-03-01T06:35:19;100519.16;;;4.05
58909;BMP280;44690;48.154;17.102;2023-03-01T06:36:51;100517.94;;;4.06
58909;BMP280;44690;48.154;17.102;2023-03-01T06:38:24;100523.56;;;4.08
58909;BMP280;44690;48.154;17.102;2023-03-01T06:39:56;100521.88;;;4.10
58909;BMP280;44690;48.154;17.102;2023-03-01T06:41:29;100520.41;;;4.15
58909;BMP280;44690;48.154;17.102;2023-03-01T06:43:01;100522.84;;;4.13
58909;BMP280;44690;48.154;17.102;2023-03-01T06:44:33;100525.53;;;4.19
58909;BMP280;44690;48.154;17.102;2023-03-01T06:46:06;100516.53;;;4.16
58909;BMP280;44690;48.154;17.102;2023-03-01T06:47:41;100529.47;;;4.29
58909;BMP280;44690;48.154;17.102;2023-03-01T06:49:13;100525.09;;;4.37
58909;BMP280;44690;48.154;17.102;2023-03-01T06:50:48;100528.25;;;4.47
58909;BMP280;44690;48.154;17.102;2023-03-01T06:52:20;100525.13;;;4.54
58909;BMP280;44690;48.154;17.102;2023-03-01T06:53:52;100523.34;;;4.62
58909;BMP280;44690;48.154;17.102;2023-03-01T06:55:24;100524.13;;;4.68
58909;BMP280;44690;48.154;17.102;2023-03-01T06:56:56;100523.66;;;4.75
58909;BMP280;44690;48.154;17.102;2023-03-01T06:58:28;100528.97;;;4.81
58909;BMP280;44690;48.154;17.102;2023-03-01T07:00:02;100515.31;;;4.84
58909;BMP280;44690;48.154;17.102;2023-03-01T07:01:34;100521.66;;;4.87
58909;BMP280;44690;48.154;17.102;2023-03-01T07:03:06;100518.72;;;4.90
58909;BMP280;44690;48.154;17.102;2023-03-01T07:04:39;100509.91;;;4.90
58909;BMP280;44690;48.154;17.102;2023-03-01T07:06:11;100521.38;;;5.02
58909;BMP280;44690;48.154;17.102;2023-03-01T07:07:43;100514.78;;;5.03
58909;BMP280;44690;48.154;17.102;2023-03-01T07:09:15;100515.50;;;5.03
58909;BMP280;44690;48.154;17.102;2023-03-01T07:10:56;100519.41;;;5.08
58909;BMP280;44690;48.154;17.102;2023-03-01T07:12:28;100509.88;;;5.07
58909;BMP280;44690;48.154;17.102;2023-03-01T07:14:00;100513.50;;;5.21
58909;BMP280;44690;48.154;17.102;2023-03-01T07:15:33;100520.84;;;5.26
58909;BMP280;44690;48.154;17.102;2023-03-01T07:17:05;100517.91;;;5.24
58909;BMP280;44690;48.154;17.102;2023-03-01T07:18:37;100513.50;;;5.26
58909;BMP280;44690;48.154;17.102;2023-03-01T07:20:09;100508.88;;;5.27
58909;BMP280;44690;48.154;17.102;2023-03-01T07:22:04;100525.94;;;5.29
58909;BMP280;44690;48.154;17.102;2023-03-01T07:23:36;100518.34;;;5.33
58909;BMP280;44690;48.154;17.102;2023-03-01T07:25:09;100507.84;;;5.35
58909;BMP280;44690;48.154;17.102;2023-03-01T07:26:42;100520.28;;;5.38
58909;BMP280;44690;48.154;17.102;2023-03-01T07:28:14;100516.41;;;5.39
58909;BMP280;44690;48.154;17.102;2023-03-01T07:29:46;100513.19;;;5.41
58909;BMP280;44690;48.154;17.102;2023-03-01T07:31:18;100514.66;;;5.42
58909;BMP280;44690;48.154;17.102;2023-03-01T07:32:51;100506.06;;;5.49
58909;BMP280;44690;48.154;17.102;2023-03-01T07:34:26;100513.81;;;5.64
58909;BMP280;44690;48.154;17.102;2023-03-01T07:36:00;100512.84;;;5.67
58909;BMP280;44690;48.154;17.102;2023-03-01T07:37:32;100519.69;;;5.74
58909;BMP280;44690;48.154;17.102;2023-03-01T07:39:04;100509.56;;;5.85
58909;BMP280;44690;48.154;17.102;2023-03-01T07:40:37;100517.06;;;6.04
58909;BMP280;44690;48.154;17.102;2023-03-01T07:42:09;100512.56;;;6.12
58909;BMP280;44690;48.154;17.102;2023-03-01T07:43:41;100508.63;;;6.18
58909;BMP280;44690;48.154;17.102;2023-03-01T07:45:13;100508.41;;;6.41
58909;BMP280;44690;48.154;17.102;2023-03-01T07:46:45;100509.75;;;6.59
58909;BMP280;44690;48.154;17.102;2023-03-01T07:48:18;100498.06;;;6.75
58909;BMP280;44690;48.154;17.102;2023-03-01T07:49:50;100506.84;;;6.81
58909;BMP280;44690;48.154;17.102;2023-03-01T07:51:28;100506.38;;;6.77
58909;BMP280;44690;48.154;17.102;2023-03-01T07:53:01;100497.78;;;6.78
58909;BMP280;44690;48.154;17.102;2023-03-01T07:54:34;100501.91;;;6.85
58909;BMP280;44690;48.154;17.102;2023-03-01T07:56:11;100507.91;;;6.97
58909;BMP280;44690;48.154;17.102;2023-03-01T07:58:03;100511.53;;;6.99
58909;BMP280;44690;48.154;17.102;2023-03-01T08:00:12;100504.59;;;6.85
58909;BMP280;44690;48.154;17.102;2023-03-01T08:02:10;100514.22;;;6.75
58909;BMP280;44690;48.154;17.102;2023-03-01T08:04:11;100513.31;;;6.72
58909;BMP280;44690;48.154;17.102;2023-03-01T08:05:43;100512.78;;;6.74
58909;BMP280;44690;48.154;17.102;2023-03-01T08:07:59;100514.44;;;6.83
58909;BMP280;44690;48.154;17.102;2023-03-01T08:09:35;100510.75;;;6.80
58909;BMP280;44690;48.154;17.102;2023-03-01T08:11:10;100512.25;;;6.81
58909;BMP280;44690;48.154;17.102;2023-03-01T08:12:43;100506.94;;;6.70
58909;BMP280;44690;48.154;17.102;2023-03-01T08:14:15;100513.81;;;6.71
58909;BMP280;44690;48.154;17.102;2023-03-01T08:15:48;100512.03;;;6.73
58909;BMP280;44690;48.154;17.102;2023-03-01T08:17:21;100519.09;;;6.82
58909;BMP280;44690;48.154;17.102;2023-03-01T08:18:53;100515.88;;;6.84
58909;BMP280;44690;48.154;17.102;2023-03-01T08:20:28;100510.00;;;6.85
58909;BMP280;44690;48.154;17.102;2023-03-01T08:22:32;100515.88;;;7.08
58909;BMP280;44690;48.154;17.102;2023-03-01T08:24:07;100505.91;;;7.22
58909;BMP280;44690;48.154;17.102;2023-03-01T08:25:42;100516.84;;;7.29
58909;BMP280;44690;48.154;17.102;2023-03-01T08:27:15;100506.41;;;7.39
58909;BMP280;44690;48.154;17.102;2023-03-01T08:28:49;100505.03;;;7.51
58909;BMP280;44690;48.154;17.102;2023-03-01T08:31:24;100496.19;;;7.70
58909;BMP280;44690;48.154;17.102;2023-03-01T08:32:57;100514.25;;;7.94
58909;BMP280;44690;48.154;17.102;2023-03-01T08:34:36;100521.16;;;8.08
58909;BMP280;44690;48.154;17.102;2023-03-01T08:36:13;100506.88;;;8.13
58909;BMP280;44690;48.154;17.102;2023-03-01T08:38:28;100512.38;;;8.21
58909;BMP280;44690;48.154;17.102;2023-03-01T08:40:00;100507.69;;;8.21
58909;BMP280;44690;48.154;17.102;2023-03-01T08:41:42;100509.50;;;8.32
58909;BMP280;44690;48.154;17.102;2023-03-01T08:43:44;100505.16;;;8.55
58909;BMP280;44690;48.154;17.102;2023-03-01T08:46:03;100499.84;;;8.63
58909;BMP280;44690;48.154;17.102;2023-03-01T08:48:21;100506.00;;;8.63
58909;BMP280;44690;48.154;17.102;2023-03-01T08:51:17;100507.13;;;9.08
58909;BMP280;44690;48.154;17.102;2023-03-01T08:54:24;100496.81;;;9.40
58909;BMP280;44690;48.154;17.102;2023-03-01T08:56:27;100496.72;;;9.46
58909;BMP280;44690;48.154;17.102;2023-03-01T08:58:43;100503.94;;;9.30
58909;BMP280;44690;48.154;17.102;2023-03-01T09:01:09;100496.00;;;8.71
58909;BMP280;44690;48.154;17.102;2023-03-01T09:02:44;100496.53;;;8.43
58909;BMP280;44690;48.154;17.102;2023-03-01T09:05:19;100479.69;;;8.05
58909;BMP280;44690;48.154;17.102;2023-03-01T09:07:30;100490.31;;;7.84
58909;BMP280;44690;48.154;17.102;2023-03-01T09:10:22;100479.34;;;7.64
58909;BMP280;44690;48.154;17.102;2023-03-01T09:12:45;100479.56;;;7.47
58909;BMP280;44690;48.154;17.102;2023-03-01T09:15:03;100472.47;;;7.25
58909;BMP280;44690;48.154;17.102;2023-03-01T09:16:58;100475.31;;;7.14
58909;BMP280;44690;48.154;17.102;2023-03-01T09:21:42;100468.38;;;6.75
58909;BMP280;44690;48.154;17.102;2023-03-01T09:24:13;100472.16;;;6.66
58909;BMP280;44690;48.154;17.102;2023-03-01T09:25:49;100473.22;;;6.58
58909;BMP280;44690;48.154;17.102;2023-03-01T09:28:43;100466.19;;;6.49
58909;BMP280;44690;48.154;17.102;2023-03-01T09:30:40;100468.88;;;6.49
58909;BMP280;44690;48.154;17.102;2023-03-01T09:32:48;100468.16;;;6.48